Time;durP1;ratioP1;P1;durP2;ratioP2;P2;SDS_P1;SDS_P2;PMS_P1;PMS_P2;Temp;Humidity;BMP_temperature;BMP_pressure;BME280_temperature;BME280_humidity;BME280_pressure;Samples;Min_cycle;Max_cycle;Signal;HPM_P1;HPM_P2
2022/03/25 00:01:41;;;;;;;116.90;89.03;;;7.20;99.90;;;;;;5123206;27;20039;-78
2022/03/25 00:04:08;;;;;;;119.97;90.75;;;7.20;99.90;;;;;;5145981;27;20035;-79
2022/03/25 00:06:35;;;;;;;115.43;89.25;;;7.30;99.90;;;;;;5140491;27;20053;-78
2022/03/25 00:09:01;;;;;;;116.00;90.77;;;7.30;99.90;;;;;;5130834;27;20074;-77
2022/03/25 00:11:27;;;;;;;119.75;90.20;;;7.30;99.90;;;;;;5127791;27;20050;-77
2022/03/25 00:13:52;;;;;;;117.70;90.60;;;7.30;99.90;;;;;;5142138;27;20126;-77
2022/03/25 00:16:18;;;;;;;125.07;92.95;;;7.30;99.90;;;;;;5135601;27;20560;-77
2022/03/25 00:18:44;;;;;;;118.72;92.40;;;7.20;99.90;;;;;;5144376;27;20043;-77
2022/03/25 00:21:10;;;;;;;127.68;93.40;;;7.20;99.90;;;;;;5128274;27;20477;-78
2022/03/25 00:23:35;;;;;;;120.70;92.97;;;7.10;99.90;;;;;;5130263;27;20038;-78
2022/03/25 00:26:02;;;;;;;119.15;91.00;;;7.10;99.90;;;;;;5119117;27;20525;-78
2022/03/25 00:28:28;;;;;;;125.10;93.90;;;7.10;99.90;;;;;;5146122;27;20129;-78
2022/03/25 00:30:54;;;;;;;128.48;94.68;;;7.00;99.90;;;;;;5142882;27;20483;-78
2022/03/25 00:33:20;;;;;;;128.15;95.40;;;7.00;99.90;;;;;;5143973;27;20078;-78
2022/03/25 00:35:45;;;;;;;122.35;93.70;;;7.00;99.90;;;;;;5137323;27;20039;-78
2022/03/25 00:38:12;;;;;;;123.90;94.18;;;7.00;99.90;;;;;;5146996;27;20478;-78
2022/03/25 00:40:37;;;;;;;124.03;94.38;;;7.00;99.90;;;;;;5143039;27;20031;-78
2022/03/25 00:43:04;;;;;;;133.10;95.50;;;7.00;99.90;;;;;;5150310;27;20041;-78
2022/03/25 00:45:31;;;;;;;126.37;94.10;;;7.00;99.90;;;;;;5141515;27;20077;-78
2022/03/25 00:47:56;;;;;;;120.63;94.93;;;7.00;99.90;;;;;;5135116;27;20039;-77
2022/03/25 00:50:23;;;;;;;126.65;95.45;;;7.00;99.90;;;;;;5139383;27;20058;-78
2022/03/25 00:52:50;;;;;;;125.63;94.72;;;6.90;99.90;;;;;;5114653;27;20034;-78
2022/03/25 00:55:16;;;;;;;121.55;92.88;;;6.90;99.90;;;;;;5115875;27;20134;-78
2022/03/25 00:57:42;;;;;;;131.32;97.40;;;6.90;99.90;;;;;;5121187;27;20586;-78
2022/03/25 01:00:09;;;;;;;132.75;98.95;;;6.90;99.90;;;;;;5129888;27;20034;-78
2022/03/25 01:02:35;;;;;;;124.07;93.35;;;6.90;99.90;;;;;;5122992;27;20054;-78
2022/03/25 01:05:00;;;;;;;123.95;95.57;;;6.90;99.90;;;;;;5111993;27;20042;-78
2022/03/25 01:07:26;;;;;;;123.20;92.78;;;6.90;99.90;;;;;;5130073;27;20050;-78
2022/03/25 01:09:52;;;;;;;119.15;92.68;;;6.90;99.90;;;;;;5132332;27;20384;-78
2022/03/25 01:12:21;;;;;;;121.07;95.68;;;6.90;99.90;;;;;;5122750;27;20103;-79
2022/03/25 01:14:48;;;;;;;122.32;95.80;;;6.90;99.90;;;;;;5119227;27;20070;-78
2022/03/25 01:17:14;;;;;;;125.07;95.90;;;6.80;99.90;;;;;;5126414;27;20066;-78
2022/03/25 01:19:41;;;;;;;123.60;95.35;;;6.80;99.90;;;;;;5146744;27;20509;-78
2022/03/25 01:22:06;;;;;;;124.07;94.50;;;6.80;99.90;;;;;;5120039;27;20117;-78
2022/03/25 01:24:32;;;;;;;126.78;95.93;;;6.70;99.90;;;;;;5148298;27;20122;-78
2022/03/25 01:27:04;;;;;;;124.68;94.75;;;6.70;99.90;;;;;;5130200;27;20126;-79
2022/03/25 01:29:29;;;;;;;124.07;93.82;;;6.70;99.90;;;;;;5140962;27;20043;-78
2022/03/25 01:31:55;;;;;;;116.13;91.50;;;6.70;99.90;;;;;;5143152;27;20096;-78
2022/03/25 01:34:21;;;;;;;121.47;92.30;;;6.70;99.90;;;;;;5148098;27;20030;-78
2022/03/25 01:36:47;;;;;;;119.55;92.50;;;6.60;99.90;;;;;;5144253;27;20087;-77
2022/03/25 01:39:13;;;;;;;117.32;90.15;;;6.60;99.90;;;;;;5115425;27;20489;-78
2022/03/25 01:41:39;;;;;;;122.40;89.97;;;6.50;99.90;;;;;;5126057;27;20050;-79
2022/03/25 01:44:08;;;;;;;118.28;90.03;;;6.50;99.90;;;;;;5131807;27;20035;-78
2022/03/25 01:46:34;;;;;;;114.72;88.28;;;6.50;99.90;;;;;;5148315;27;20079;-78
2022/03/25 01:48:59;;;;;;;116.75;90.70;;;6.50;99.90;;;;;;5136337;27;20081;-78
2022/03/25 01:51:25;;;;;;;115.30;89.47;;;6.40;99.90;;;;;;5115314;27;20076;-77
2022/03/25 01:53:51;;;;;;;112.05;89.35;;;6.40;99.90;;;;;;5125077;27;20055;-78
2022/03/25 01:56:23;;;;;;;111.55;87.85;;;6.30;99.90;;;;;;5148809;27;20039;-77
2022/03/25 01:58:51;;;;;;;110.07;85.00;;;6.30;99.90;;;;;;5131396;27;20450;-78
2022/03/25 02:01:17;;;;;;;107.38;84.95;;;6.30;99.90;;;;;;5142332;27;20039;-76
2022/03/25 02:03:46;;;;;;;100.03;80.13;;;6.20;99.90;;;;;;5138514;27;20615;-77
2022/03/25 02:06:12;;;;;;;105.40;82.05;;;6.20;99.90;;;;;;5148350;27;20117;-76
2022/03/25 02:08:37;;;;;;;97.40;80.65;;;6.20;99.90;;;;;;5150892;27;20129;-77
2022/03/25 02:11:04;;;;;;;94.18;78.13;;;6.10;99.90;;;;;;5138433;27;20030;-77
2022/03/25 02:13:30;;;;;;;91.65;76.45;;;6.10;99.90;;;;;;5119167;27;20611;-78
2022/03/25 02:15:55;;;;;;;98.57;73.90;;;6.00;99.90;;;;;;5145008;27;20074;-77
2022/03/25 02:18:23;;;;;;;100.60;78.05;;;5.90;99.90;;;;;;5122305;27;20133;-78
2022/03/25 02:20:49;;;;;;;106.47;75.82;;;5.80;99.90;;;;;;5134567;27;20043;-77
2022/03/25 02:23:16;;;;;;;100.53;70.63;;;5.70;99.90;;;;;;5133221;27;20043;-78
2022/03/25 02:25:42;;;;;;;99.70;74.90;;;5.70;99.90;;;;;;5126137;27;20030;-77
2022/03/25 02:28:08;;;;;;;97.40;72.50;;;5.60;99.90;;;;;;5126609;27;20565;-77
2022/03/25 02:30:38;;;;;;;112.30;65.28;;;5.60;99.90;;;;;;5128597;27;20095;-77
2022/03/25 02:33:07;;;;;;;98.40;69.30;;;5.50;99.90;;;;;;5126544;27;20050;-78
2022/03/25 02:35:42;;;;;;;128.15;71.47;;;5.40;99.90;;;;;;5137680;27;20491;-78
2022/03/25 02:38:09;;;;;;;111.90;65.63;;;5.30;99.90;;;;;;5121220;27;20873;-78
2022/03/25 02:40:34;;;;;;;108.25;68.05;;;5.20;99.90;;;;;;5114973;27;20054;-78
2022/03/25 02:43:00;;;;;;;94.93;62.78;;;5.10;99.90;;;;;;5148063;27;20038;-77
2022/03/25 02:45:25;;;;;;;89.72;65.85;;;5.10;99.90;;;;;;5153789;27;20045;-78
2022/03/25 02:47:51;;;;;;;103.97;67.18;;;5.00;99.90;;;;;;5145483;27;20124;-78
2022/03/25 02:50:17;;;;;;;99.65;67.57;;;5.00;99.90;;;;;;5132772;27;20435;-78
2022/03/25 02:52:43;;;;;;;91.68;61.45;;;5.00;99.90;;;;;;5141596;27;20035;-78
2022/03/25 02:55:09;;;;;;;99.53;65.60;;;4.90;99.90;;;;;;5140010;27;20030;-79
2022/03/25 02:57:38;;;;;;;92.13;70.07;;;4.90;99.90;;;;;;5137039;27;20050;-78
2022/03/25 03:00:09;;;;;;;86.95;66.10;;;4.90;99.90;;;;;;5122815;27;20043;-78
2022/03/25 03:02:38;;;;;;;85.15;63.17;;;4.90;99.90;;;;;;5124708;27;20042;-78
2022/03/25 03:05:07;;;;;;;104.15;68.25;;;4.90;99.90;;;;;;5133947;27;20321;-78
2022/03/25 03:07:35;;;;;;;87.82;70.05;;;4.90;99.90;;;;;;5124801;27;20030;-78
2022/03/25 03:10:05;;;;;;;84.32;64.85;;;4.90;99.90;;;;;;5139518;27;20064;-78
2022/03/25 03:12:32;;;;;;;95.57;69.53;;;4.80;99.90;;;;;;5137518;27;20038;-78
2022/03/25 03:15:01;;;;;;;86.65;66.15;;;4.90;99.90;;;;;;5113881;27;20564;-79
2022/03/25 03:17:27;;;;;;;85.28;59.38;;;4.80;99.90;;;;;;5136429;27;20503;-77
2022/03/25 03:19:54;;;;;;;83.07;64.78;;;4.80;99.90;;;;;;5147419;27;20066;-78
2022/03/25 03:22:20;;;;;;;78.18;61.85;;;4.80;99.90;;;;;;5150531;27;20049;-78
2022/03/25 03:24:45;;;;;;;84.45;65.70;;;4.80;99.90;;;;;;5128815;27;20035;-78
2022/03/25 03:27:11;;;;;;;79.40;64.97;;;4.70;99.90;;;;;;5148274;27;21918;-78
2022/03/25 03:29:37;;;;;;;76.55;62.92;;;4.70;99.90;;;;;;5157890;27;20046;-78
2022/03/25 03:32:04;;;;;;;84.95;59.38;;;4.70;99.90;;;;;;5119031;27;20039;-78
2022/03/25 03:34:30;;;;;;;88.03;62.42;;;4.70;99.90;;;;;;5137402;27;20412;-78
2022/03/25 03:36:56;;;;;;;81.78;63.42;;;4.70;99.90;;;;;;5135457;27;20050;-77
2022/03/25 03:39:21;;;;;;;89.00;56.90;;;4.70;99.90;;;;;;5120637;27;20047;-77
2022/03/25 03:41:47;;;;;;;102.38;63.42;;;4.70;99.90;;;;;;5116117;27;20054;-78
2022/03/25 03:44:13;;;;;;;109.93;62.58;;;4.70;99.90;;;;;;5128984;27;20030;-78
2022/03/25 03:46:38;;;;;;;76.70;57.30;;;4.60;99.90;;;;;;5131725;27;20058;-78
2022/03/25 03:49:04;;;;;;;116.28;60.50;;;4.60;99.90;;;;;;5123458;27;20038;-77
2022/03/25 03:51:31;;;;;;;138.75;64.00;;;4.60;99.90;;;;;;5126079;27;20085;-78
2022/03/25 03:53:56;;;;;;;200.75;59.00;;;4.60;99.90;;;;;;5123457;27;20026;-78
2022/03/25 03:56:24;;;;;;;134.35;61.83;;;4.50;99.90;;;;;;5151940;27;20050;-78
2022/03/25 03:58:50;;;;;;;123.25;65.15;;;4.50;99.90;;;;;;5151732;27;20034;-78
2022/03/25 04:01:16;;;;;;;177.55;62.35;;;4.50;99.90;;;;;;5151545;27;20588;-77
2022/03/25 04:03:41;;;;;;;128.35;66.00;;;4.50;99.90;;;;;;5141119;27;20027;-77
2022/03/25 04:06:07;;;;;;;176.80;59.90;;;4.50;99.90;;;;;;5133674;27;20051;-78
2022/03/25 04:08:35;;;;;;;83.47;59.10;;;4.40;99.90;;;;;;5132154;27;20042;-78
2022/03/25 04:11:01;;;;;;;;;;;4.40;99.90;;;;;;5150672;27;20610;-78
2022/03/25 04:13:26;;;;;;;148.32;58.60;;;4.30;99.90;;;;;;5123932;27;19919;-78
2022/03/25 04:15:52;;;;;;;121.57;67.25;;;4.30;99.90;;;;;;5128913;27;20038;-78
2022/03/25 04:18:17;;;;;;;110.28;67.28;;;4.30;99.90;;;;;;5140887;27;20086;-77
2022/03/25 04:20:43;;;;;;;111.60;62.97;;;4.30;99.90;;;;;;5133386;27;20031;-78
2022/03/25 04:23:09;;;;;;;102.60;68.07;;;4.30;99.90;;;;;;5113457;27;20066;-77
2022/03/25 04:25:34;;;;;;;120.38;62.70;;;4.30;99.90;;;;;;5129467;27;20405;-78
2022/03/25 04:28:01;;;;;;;174.70;72.47;;;4.30;99.90;;;;;;5139034;27;20062;-78
2022/03/25 04:30:32;;;;;;;117.35;63.78;;;4.30;99.90;;;;;;5113772;27;20153;-78
2022/03/25 04:33:01;;;;;;;200.18;71.07;;;4.20;99.90;;;;;;5120259;27;20085;-78
2022/03/25 04:35:28;;;;;;;154.35;68.82;;;4.20;99.90;;;;;;5136135;27;20167;-77
2022/03/25 04:37:55;;;;;;;138.77;62.17;;;4.20;99.90;;;;;;5142391;27;20551;-78
2022/03/25 04:40:22;;;;;;;136.68;66.93;;;4.20;99.90;;;;;;5140246;27;20809;-78
2022/03/25 04:42:56;;;;;;;243.60;63.35;;;4.20;99.90;;;;;;5146196;27;20035;-78
2022/03/25 04:45:24;;;;;;;291.35;64.60;;;4.20;99.90;;;;;;5131197;27;20463;-78
2022/03/25 04:47:51;;;;;;;255.43;67.80;;;4.10;99.90;;;;;;5146794;27;20201;-78
2022/03/25 04:50:17;;;;;;;208.63;65.78;;;4.10;99.90;;;;;;5135601;27;20054;-77
2022/03/25 04:52:43;;;;;;;136.23;60.42;;;4.00;99.90;;;;;;5147550;27;20497;-76
2022/03/25 04:55:11;;;;;;;280.10;70.47;;;4.00;99.90;;;;;;5118781;27;20043;-77
2022/03/25 04:57:37;;;;;;;;;;;3.90;99.90;;;;;;5129595;27;20035;-78
2022/03/25 05:00:03;;;;;;;169.43;61.70;;;3.80;99.90;;;;;;5126940;27;20470;-78
2022/03/25 05:02:29;;;;;;;175.48;60.05;;;3.80;99.90;;;;;;5141339;27;20540;-78
2022/03/25 05:04:55;;;;;;;202.70;71.65;;;3.80;99.90;;;;;;5121838;27;20134;-78
2022/03/25 05:07:21;;;;;;;110.47;59.33;;;3.80;99.90;;;;;;5141772;27;20081;-78
2022/03/25 05:09:50;;;;;;;164.45;72.15;;;3.90;99.90;;;;;;5148492;27;20038;-78
2022/03/25 05:12:16;;;;;;;244.05;59.78;;;3.90;99.90;;;;;;5143835;27;20050;-78
2022/03/25 05:14:42;;;;;;;116.15;56.53;;;3.90;99.90;;;;;;5141876;27;20043;-78
2022/03/25 05:17:08;;;;;;;122.63;58.60;;;3.90;99.90;;;;;;5136241;27;20050;-78
2022/03/25 05:19:34;;;;;;;166.55;55.53;;;3.90;99.90;;;;;;5148328;27;20038;-78
2022/03/25 05:22:00;;;;;;;108.43;58.92;;;3.80;99.90;;;;;;5145915;27;20055;-78
2022/03/25 05:24:28;;;;;;;127.10;63.28;;;3.80;99.90;;;;;;5155223;27;20041;-78
2022/03/25 05:26:56;;;;;;;150.25;57.92;;;3.80;99.90;;;;;;5119077;27;20460;-78
2022/03/25 05:29:22;;;;;;;165.45;56.65;;;3.90;99.90;;;;;;5151527;27;20054;-78
2022/03/25 05:31:48;;;;;;;85.35;55.40;;;3.80;99.90;;;;;;5138836;27;20034;-78
2022/03/25 05:34:14;;;;;;;129.50;63.28;;;3.80;99.90;;;;;;5144582;27;20337;-78
2022/03/25 05:36:39;;;;;;;194.43;58.22;;;3.80;99.90;;;;;;5146451;27;20137;-78
2022/03/25 05:39:05;;;;;;;170.75;55.80;;;3.80;99.90;;;;;;5110932;27;20473;-78
2022/03/25 05:41:31;;;;;;;165.57;55.47;;;3.80;99.90;;;;;;5147979;27;20043;-78
2022/03/25 05:43:57;;;;;;;153.32;57.50;;;3.80;99.90;;;;;;5113894;27;20473;-78
2022/03/25 05:46:23;;;;;;;110.57;55.83;;;3.70;99.90;;;;;;5135281;27;20039;-78
2022/03/25 05:48:58;;;;;;;79.90;53.65;;;3.70;99.90;;;;;;5110998;28;20069;-79
2022/03/25 05:51:24;;;;;;;238.65;60.67;;;3.80;99.90;;;;;;5139650;27;20102;-78
2022/03/25 05:53:49;;;;;;;112.50;54.22;;;3.70;99.90;;;;;;5136680;27;20381;-78
2022/03/25 05:56:15;;;;;;;83.93;53.17;;;3.70;99.90;;;;;;5150681;27;20045;-78
2022/03/25 05:58:41;;;;;;;93.90;52.78;;;3.70;99.90;;;;;;5143102;27;20039;-78
2022/03/25 06:01:10;;;;;;;128.50;52.95;;;3.70;99.90;;;;;;5114521;27;20126;-78
2022/03/25 06:03:35;;;;;;;84.13;53.25;;;3.70;99.90;;;;;;5139594;27;20042;-78
2022/03/25 06:06:03;;;;;;;66.82;52.95;;;3.70;99.90;;;;;;5136948;27;20568;-78
2022/03/25 06:08:30;;;;;;;89.13;54.13;;;3.70;99.90;;;;;;5146941;27;20043;-79
2022/03/25 06:10:56;;;;;;;122.47;56.03;;;3.70;99.90;;;;;;5129664;27;20468;-79
2022/03/25 06:13:23;;;;;;;82.50;55.92;;;3.70;99.90;;;;;;5119690;27;20104;-78
2022/03/25 06:15:49;;;;;;;84.03;56.63;;;3.70;99.90;;;;;;5145505;27;20035;-78
2022/03/25 06:18:14;;;;;;;111.47;60.20;;;3.70;99.90;;;;;;5144714;27;20726;-78
2022/03/25 06:20:40;;;;;;;93.43;58.78;;;3.80;99.90;;;;;;5117541;27;20125;-78
2022/03/25 06:23:06;;;;;;;93.45;56.20;;;3.80;99.90;;;;;;5119480;27;20059;-78
2022/03/25 06:25:32;;;;;;;92.93;57.40;;;3.80;99.90;;;;;;5122177;27;20103;-78
2022/03/25 06:28:00;;;;;;;99.43;57.35;;;3.80;99.90;;;;;;5121947;27;20062;-78
2022/03/25 06:30:31;;;;;;;97.18;62.33;;;3.90;99.90;;;;;;5147399;27;20107;-77
2022/03/25 06:32:57;;;;;;;127.43;61.92;;;3.90;99.90;;;;;;5144412;27;20122;-75
2022/03/25 06:35:24;;;;;;;140.05;61.25;;;3.90;99.90;;;;;;5140268;27;20057;-77
2022/03/25 06:37:55;;;;;;;166.73;63.53;;;4.00;99.90;;;;;;5120380;27;20029;-77
2022/03/25 06:40:21;;;;;;;98.40;62.28;;;4.00;99.90;;;;;;5129659;27;20082;-77
2022/03/25 06:42:47;;;;;;;129.35;64.75;;;4.00;99.90;;;;;;5126982;27;20515;-77
2022/03/25 06:45:15;;;;;;;130.10;63.83;;;4.10;99.90;;;;;;5147809;27;20043;-76
2022/03/25 06:47:41;;;;;;;;;;;4.10;99.90;;;;;;5124257;27;20074;-77
2022/03/25 06:50:10;;;;;;;91.93;57.22;;;4.20;99.90;;;;;;5124591;27;19919;-77
2022/03/25 06:52:36;;;;;;;135.68;61.03;;;4.20;99.90;;;;;;5149109;27;20045;-77
2022/03/25 06:55:02;;;;;;;153.77;69.00;;;4.10;99.90;;;;;;5150860;27;20038;-77
2022/03/25 06:57:28;;;;;;;102.25;61.58;;;4.20;99.90;;;;;;5134103;27;20035;-77
2022/03/25 06:59:54;;;;;;;108.40;64.22;;;4.20;99.90;;;;;;5123781;27;20047;-77
2022/03/25 07:02:20;;;;;;;92.15;65.18;;;4.20;99.90;;;;;;5148369;27;20041;-77
2022/03/25 07:04:46;;;;;;;83.53;64.05;;;4.30;99.90;;;;;;5122874;27;20485;-79
2022/03/25 07:07:12;;;;;;;92.35;70.47;;;4.40;99.90;;;;;;5127611;27;20035;-77
2022/03/25 07:09:38;;;;;;;84.22;63.72;;;4.40;99.90;;;;;;5123484;27;20192;-78
2022/03/25 07:12:04;;;;;;;82.93;63.10;;;4.50;99.90;;;;;;5122192;27;20041;-77
2022/03/25 07:14:30;;;;;;;80.38;65.75;;;4.50;99.90;;;;;;5114989;27;20039;-77
2022/03/25 07:16:56;;;;;;;80.53;65.75;;;4.60;99.90;;;;;;5142471;27;20143;-76
2022/03/25 07:19:25;;;;;;;80.32;60.17;;;4.70;99.90;;;;;;5114256;22;20530;-77
2022/03/25 07:21:54;;;;;;;80.60;65.85;;;4.80;99.90;;;;;;5089188;28;20052;-77
2022/03/25 07:24:21;;;;;;;86.22;69.47;;;4.80;99.90;;;;;;5064895;28;20806;-76
2022/03/25 07:26:47;;;;;;;85.55;67.30;;;4.90;99.90;;;;;;5070927;28;20043;-77
2022/03/25 07:29:14;;;;;;;81.22;67.47;;;5.00;99.90;;;;;;5090524;28;20395;-77
2022/03/25 07:31:39;;;;;;;86.00;65.60;;;5.10;99.90;;;;;;5069598;28;20072;-77
2022/03/25 07:34:06;;;;;;;89.90;73.45;;;5.10;99.90;;;;;;5087811;28;21032;-76
2022/03/25 07:36:32;;;;;;;93.40;72.60;;;5.10;99.90;;;;;;5070154;28;20040;-77
2022/03/25 07:39:01;;;;;;;102.80;83.60;;;5.30;99.90;;;;;;5086975;28;20127;-77
2022/03/25 07:41:28;;;;;;;95.18;78.20;;;5.40;99.90;;;;;;5072350;28;20442;-77
2022/03/25 07:43:53;;;;;;;96.00;81.30;;;5.50;99.90;;;;;;5084730;28;20109;-77
2022/03/25 07:46:19;;;;;;;93.15;75.75;;;5.60;99.90;;;;;;5069949;28;20048;-77
2022/03/25 07:48:45;;;;;;;91.60;74.22;;;5.60;99.90;;;;;;5088785;28;20130;-77
2022/03/25 07:51:11;;;;;;;91.20;73.13;;;5.80;99.90;;;;;;5089798;28;20040;-77
2022/03/25 07:53:37;;;;;;;85.38;70.78;;;5.90;99.90;;;;;;5068605;28;20135;-77
2022/03/25 07:56:05;;;;;;;81.10;67.85;;;6.00;99.90;;;;;;5070503;28;20048;-77
2022/03/25 07:58:32;;;;;;;85.25;69.75;;;6.00;99.90;;;;;;5088682;28;20486;-77
2022/03/25 08:00:58;;;;;;;86.60;69.70;;;6.10;99.90;;;;;;5089489;28;20044;-78
2022/03/25 08:03:24;;;;;;;83.40;68.75;;;6.20;99.90;;;;;;5069168;28;20040;-76
2022/03/25 08:05:50;;;;;;;79.10;66.00;;;6.30;99.90;;;;;;5087820;28;20043;-81
2022/03/25 08:08:19;;;;;;;87.28;68.10;;;6.40;99.90;;;;;;5088212;28;20048;-77
2022/03/25 08:10:46;;;;;;;80.88;68.03;;;6.50;99.90;;;;;;5089441;28;20067;-82
2022/03/25 08:13:13;;;;;;;76.07;64.68;;;6.60;99.90;;;;;;5087607;28;20096;-82
2022/03/25 08:15:38;;;;;;;76.72;64.80;;;6.60;99.90;;;;;;5068959;28;20036;-86
2022/03/25 08:18:06;;;;;;;83.47;67.15;;;6.80;99.90;;;;;;5070001;28;20055;-84
2022/03/25 08:20:37;;;;;;;;;;;6.80;99.90;;;;;;5067780;28;20053;-82
2022/03/25 08:23:04;;;;;;;81.68;67.40;;;6.90;99.90;;;;;;5070204;28;20804;-80
2022/03/25 08:28:16;;;;;;;80.18;65.45;;;7.10;99.90;;;;;;5069369;28;19924;-81
2022/03/25 08:30:43;;;;;;;78.43;63.40;;;7.10;99.90;;;;;;5071388;28;20105;-82
2022/03/25 08:33:10;;;;;;;82.65;65.90;;;7.20;99.90;;;;;;5088702;28;20048;-83
2022/03/25 08:35:37;;;;;;;76.72;64.25;;;7.30;99.90;;;;;;5087880;28;20051;-80
2022/03/25 08:38:05;;;;;;;81.47;66.25;;;7.30;99.90;;;;;;5069356;28;20048;-83
2022/03/25 08:40:32;;;;;;;75.68;62.60;;;7.40;99.90;;;;;;5069064;28;20042;-77
2022/03/25 08:42:58;;;;;;;;;;;7.40;99.90;;;;;;5087889;28;20075;-84
2022/03/25 08:45:23;;;;;;;83.55;66.25;;;7.50;99.90;;;;;;5072624;28;20349;-83
2022/03/25 08:47:49;;;;;;;83.63;65.85;;;7.60;99.90;;;;;;5088748;28;20458;-85
2022/03/25 08:50:18;;;;;;;83.90;68.70;;;7.70;99.90;;;;;;5090083;28;20232;-85
2022/03/25 08:52:46;;;;;;;79.97;63.15;;;7.80;99.90;;;;;;5071677;28;20055;-84
2022/03/25 08:55:12;;;;;;;78.43;63.50;;;7.90;99.90;;;;;;5071551;28;20036;-85
2022/03/25 08:57:39;;;;;;;78.20;61.70;;;8.10;99.90;;;;;;5071797;28;20048;-84
2022/03/25 09:00:07;;;;;;;74.18;59.35;;;8.10;99.90;;;;;;5071545;28;20036;-82
2022/03/25 09:02:33;;;;;;;74.65;59.72;;;8.20;99.90;;;;;;5088135;28;20506;-83
2022/03/25 09:04:58;;;;;;;77.00;60.30;;;8.40;99.90;;;;;;5064202;28;20028;-85
2022/03/25 09:07:24;;;;;;;76.53;60.65;;;8.50;99.90;;;;;;5069013;28;20093;-85
2022/03/25 09:09:49;;;;;;;76.00;61.22;;;8.50;99.90;;;;;;5088025;28;20047;-87
2022/03/25 09:12:18;;;;;;;80.05;62.35;;;8.70;99.90;;;;;;5088811;28;20474;-83
2022/03/25 09:14:43;;;;;;;73.00;59.60;;;8.80;99.90;;;;;;5071477;28;20048;-81
2022/03/25 09:17:09;;;;;;;76.28;60.15;;;8.90;99.90;;;;;;5088805;28;20547;-83
2022/03/25 09:19:35;;;;;;;78.40;62.30;;;8.90;99.90;;;;;;5089046;28;20048;-85
2022/03/25 09:22:00;;;;;;;78.82;61.40;;;9.10;99.90;;;;;;5081573;28;20388;-86
2022/03/25 09:24:26;;;;;;;73.85;58.83;;;9.20;99.90;;;;;;5105917;28;20052;-86
2022/03/25 09:26:52;;;;;;;72.60;59.65;;;9.30;99.90;;;;;;5092944;28;20111;-87
2022/03/25 09:29:21;;;;;;;78.03;60.60;;;9.30;99.90;;;;;;5093656;28;20083;-81
2022/03/25 09:31:47;;;;;;;77.70;60.47;;;9.40;99.90;;;;;;5092186;28;20461;-81
2022/03/25 09:36:57;;;;;;;77.10;60.75;;;9.60;99.90;;;;;;5076846;28;20074;-84
2022/03/25 09:39:23;;;;;;;74.90;58.97;;;9.70;99.90;;;;;;5085134;28;20125;-83
2022/03/25 09:41:50;;;;;;;78.38;60.22;;;9.80;99.90;;;;;;5087751;28;20048;-83
2022/03/25 09:44:16;;;;;;;80.00;62.17;;;9.90;99.90;;;;;;5081853;28;20426;-81
2022/03/25 09:46:42;;;;;;;79.53;61.20;;;10.00;99.90;;;;;;5068868;28;20075;-80
2022/03/25 09:49:15;;;;;;;75.35;58.40;;;10.20;99.90;;;;;;5068999;28;20048;-79
2022/03/25 09:51:41;;;;;;;78.40;60.30;;;10.30;99.90;;;;;;5068579;28;20041;-78
2022/03/25 09:54:09;;;;;;;75.65;58.95;;;10.40;99.90;;;;;;5082330;28;20043;-79
2022/03/25 09:56:35;;;;;;;79.78;61.15;;;10.50;99.90;;;;;;5088997;28;20471;-79
2022/03/25 09:59:02;;;;;;;70.30;57.22;;;10.60;99.90;;;;;;5087800;28;20038;-84
2022/03/25 10:01:28;;;;;;;74.43;57.40;;;10.70;99.90;;;;;;5089537;28;20059;-86
2022/03/25 10:03:54;;;;;;;71.53;56.25;;;10.80;99.90;;;;;;5088039;28;20032;-84
2022/03/25 10:06:19;;;;;;;70.85;57.03;;;10.90;99.90;;;;;;5065369;28;20056;-85
2022/03/25 10:08:59;;;;;;;74.18;56.22;;;11.00;99.90;;;;;;5086603;28;20056;-86
2022/03/25 10:11:32;;;;;;;74.97;57.08;;;11.10;99.90;;;;;;5072291;28;20441;-85
2022/03/25 10:14:14;;;;;;;74.20;56.05;;;11.20;99.90;;;;;;5089528;28;20040;-87
2022/03/25 10:16:42;;;;;;;72.05;54.40;;;11.30;99.90;;;;;;5088367;28;20056;-86
2022/03/25 10:19:10;;;;;;;;;;;11.30;99.90;;;;;;5083489;28;20044;-83
2022/03/25 10:22:00;;;;;;;67.60;53.55;;;11.40;99.90;;;;;;5071726;28;19923;-83
2022/03/25 10:24:40;;;;;;;69.90;53.72;;;11.50;99.90;;;;;;5084391;28;20649;-79
2022/03/25 10:27:07;;;;;;;66.07;52.28;;;11.60;99.90;;;;;;5089695;28;20596;-79
2022/03/25 10:29:34;;;;;;;65.65;50.42;;;11.70;99.90;;;;;;5092915;28;20047;-79
2022/03/25 10:32:12;;;;;;;67.53;51.50;;;11.80;99.90;;;;;;5072302;28;20498;-79
2022/03/25 10:34:39;;;;;;;63.45;49.92;;;11.90;99.90;;;;;;5073986;28;20105;-85
2022/03/25 10:37:07;;;;;;;63.00;50.28;;;12.00;99.90;;;;;;5092123;28;20071;-86
2022/03/25 10:39:33;;;;;;;;;;;12.00;99.90;;;;;;5075445;28;20487;-85
2022/03/25 10:42:01;;;;;;;64.70;49.72;;;12.20;99.90;;;;;;5072728;28;19981;-89
2022/03/25 10:44:38;;;;;;;62.40;48.67;;;12.30;99.90;;;;;;5074793;28;20047;-87
2022/03/25 10:47:16;;;;;;;64.38;49.55;;;12.30;99.90;;;;;;5089138;28;20516;-77
2022/03/25 10:49:47;;;;;;;65.43;49.40;;;12.40;99.90;;;;;;5089146;28;20044;-78
2022/03/25 10:52:34;;;;;;;64.07;48.60;;;12.50;99.90;;;;;;5081731;28;20040;-77
2022/03/25 10:55:19;;;;;;;;;;;12.60;99.90;;;;;;5073982;28;20751;-81
2022/03/25 10:58:01;;;;;;;60.97;46.88;;;12.60;99.90;;;;;;5093323;28;19974;-88
2022/03/25 11:00:27;;;;;;;65.35;48.13;;;12.70;99.90;;;;;;5073544;28;20052;-80
2022/03/25 11:02:55;;;;;;;62.58;47.70;;;12.80;99.90;;;;;;5070361;28;20102;-81
2022/03/25 11:05:21;;;;;;;60.30;48.63;;;12.90;99.90;;;;;;5082469;28;20097;-86
2022/03/25 11:07:47;;;;;;;62.55;47.78;;;12.90;99.70;;;;;;5072893;28;20047;-79
2022/03/25 11:10:17;;;;;;;60.63;48.15;;;13.00;99.30;;;;;;5071788;28;20093;-78
2022/03/25 11:12:45;;;;;;;61.63;45.63;;;13.10;98.50;;;;;;5090966;28;20048;-79
2022/03/25 11:15:19;;;;;;;59.10;47.95;;;13.10;96.80;;;;;;5091041;28;20040;-82
2022/03/25 11:17:46;;;;;;;62.20;48.40;;;13.10;97.30;;;;;;5067687;28;20110;-88
2022/03/25 11:20:18;;;;;;;60.65;45.35;;;13.20;95.80;;;;;;5073031;28;20121;-84
2022/03/25 11:22:49;;;;;;;59.35;45.80;;;13.30;96.70;;;;;;5071328;28;20155;-86
2022/03/25 11:25:18;;;;;;;59.95;45.75;;;13.30;96.30;;;;;;5073860;28;20475;-85
2022/03/25 11:27:54;;;;;;;61.75;47.15;;;13.40;95.70;;;;;;5091441;28;20048;-86
2022/03/25 11:30:20;;;;;;;59.80;45.97;;;13.50;94.40;;;;;;5091232;28;20093;-85
2022/03/25 11:33:00;;;;;;;61.13;46.60;;;13.60;93.90;;;;;;5088206;28;20040;-83
2022/03/25 11:35:26;;;;;;;58.28;43.20;;;13.60;93.70;;;;;;5091103;28;20056;-82
2022/03/25 11:38:13;;;;;;;57.75;42.88;;;13.70;92.50;;;;;;5089736;28;20437;-89
2022/03/25 11:40:46;;;;;;;;;;;13.80;90.80;;;;;;5073512;28;20036;-86
2022/03/25 11:43:22;;;;;;;55.40;41.70;;;13.90;94.80;;;;;;5071072;28;19916;-85
2022/03/25 11:46:00;;;;;;;53.55;42.15;;;13.90;91.00;;;;;;5060773;28;20052;-83
2022/03/25 11:48:26;;;;;;;58.88;43.60;;;14.00;85.60;;;;;;5090778;28;20055;-85
2022/03/25 11:50:55;;;;;;;57.42;43.03;;;14.10;86.70;;;;;;5070166;28;20044;-79
2022/03/25 11:53:23;;;;;;;57.33;41.88;;;14.20;84.40;;;;;;5094472;28;20048;-80
2022/03/25 11:56:04;;;;;;;52.90;38.45;;;14.30;85.90;;;;;;5091249;28;20112;-79
2022/03/25 11:58:37;;;;;;;56.95;39.63;;;14.30;80.80;;;;;;5076203;28;20119;-81
2022/03/25 12:01:05;;;;;;;53.60;40.22;;;14.40;77.70;;;;;;5076572;28;20048;-90
2022/03/25 12:03:49;;;;;;;61.40;42.33;;;14.50;78.40;;;;;;5092297;28;20079;-76
2022/03/25 12:06:23;;;;;;;53.42;39.80;;;14.50;78.10;;;;;;5072939;28;20046;-77
2022/03/25 12:08:57;;;;;;;54.17;40.88;;;14.60;75.00;;;;;;5087061;28;20549;-87
2022/03/25 12:11:51;;;;;;;58.15;41.90;;;14.70;75.20;;;;;;5094843;28;20430;-84
2022/03/25 12:14:26;;;;;;;51.78;38.97;;;14.80;76.90;;;;;;5090315;28;20044;-85
2022/03/25 12:16:51;;;;;;;53.08;37.20;;;14.80;76.30;;;;;;5071815;28;20467;-83
2022/03/25 12:19:29;;;;;;;57.92;39.17;;;14.90;72.90;;;;;;5068959;28;20149;-80
2022/03/25 12:21:59;;;;;;;52.78;38.90;;;15.00;72.10;;;;;;5066445;28;20471;-80
2022/03/25 12:24:25;;;;;;;51.88;36.53;;;15.10;70.50;;;;;;5090339;28;20051;-80
2022/03/25 12:27:00;;;;;;;53.78;36.63;;;15.20;69.90;;;;;;5088499;28;20064;-80
2022/03/25 12:29:32;;;;;;;47.60;35.88;;;15.20;68.20;;;;;;5090165;28;20043;-78
2022/03/25 12:32:04;;;;;;;56.10;38.17;;;15.20;66.90;;;;;;5088868;28;20040;-80
2022/03/25 12:34:48;;;;;;;53.60;39.20;;;15.20;68.30;;;;;;5069156;28;20055;-79
2022/03/25 12:37:32;;;;;;;49.05;33.88;;;15.30;69.80;;;;;;5071557;28;20040;-77
2022/03/25 12:40:11;;;;;;;47.63;33.53;;;15.30;65.80;;;;;;5087841;28;20128;-77
2022/03/25 12:42:37;;;;;;;46.00;32.80;;;15.40;64.50;;;;;;5071835;28;20047;-77